createdAt,value
2019-03-29T00:00:54.789Z,97.90
2019-03-29T00:03:24.377Z,98.10
2019-03-29T00:05:53.897Z,98.70
2019-03-29T00:08:23.574Z,98.70
2019-03-29T00:10:53.059Z,98.90
2019-03-29T00:13:23.191Z,99.10
2019-03-29T00:15:53.106Z,99.20
2019-03-29T00:18:22.576Z,99.40
2019-03-29T00:20:52.570Z,99.60
2019-03-29T00:23:23.003Z,99.50
2019-03-29T00:25:52.465Z,99.80
2019-03-29T00:28:22.374Z,99.90
2019-03-29T00:30:51.915Z,99.90
2019-03-29T00:33:21.509Z,99.90
2019-03-29T00:35:51.189Z,99.90
2019-03-29T00:38:20.670Z,99.90
2019-03-29T00:40:50.164Z,99.90
2019-03-29T00:43:19.637Z,99.90
2019-03-29T00:45:49.114Z,99.90
2019-03-29T00:48:18.598Z,99.90
2019-03-29T00:50:48.393Z,99.90
2019-03-29T00:53:18.445Z,99.90
2019-03-29T00:55:47.930Z,99.90
2019-03-29T00:58:17.463Z,99.90
2019-03-29T01:00:46.938Z,99.90
2019-03-29T01:03:16.937Z,99.90
2019-03-29T01:05:47.012Z,99.90
2019-03-29T01:08:16.888Z,99.90
2019-03-29T01:10:46.361Z,99.90
2019-03-29T01:13:16.389Z,99.90
2019-03-29T01:15:45.970Z,99.90
2019-03-29T01:18:15.572Z,99.90
2019-03-29T01:20:47.409Z,99.90
2019-03-29T01:23:17.586Z,99.90
2019-03-29T01:25:47.541Z,99.90
2019-03-29T01:28:17.141Z,99.90
2019-03-29T01:30:46.723Z,99.90
2019-03-29T01:33:16.225Z,99.90
2019-03-29T01:35:46.022Z,99.90
2019-03-29T01:38:21.786Z,99.90
2019-03-29T01:40:46.943Z,99.90
2019-03-29T01:43:16.497Z,99.90
2019-03-29T01:45:46.073Z,99.90
2019-03-29T01:48:15.593Z,99.90
2019-03-29T01:50:45.443Z,99.90
2019-03-29T01:53:15.208Z,99.90
2019-03-29T01:55:44.965Z,99.90
2019-03-29T01:58:14.349Z,99.90
2019-03-29T02:00:43.846Z,99.90
2019-03-29T02:03:13.415Z,99.90
2019-03-29T02:05:42.847Z,99.90
2019-03-29T02:08:12.369Z,99.90
2019-03-29T02:10:42.161Z,99.90
2019-03-29T02:13:11.723Z,99.90
2019-03-29T02:15:41.569Z,99.90
2019-03-29T02:18:11.030Z,99.90
2019-03-29T02:20:40.602Z,99.90
2019-03-29T02:23:10.056Z,99.90
2019-03-29T02:25:39.508Z,99.90
2019-03-29T02:28:09.464Z,99.90
2019-03-29T02:30:39.026Z,99.90
2019-03-29T02:33:08.513Z,99.90
2019-03-29T02:35:38.967Z,99.90
2019-03-29T02:38:08.574Z,99.90
2019-03-29T02:40:38.562Z,99.90
2019-03-29T02:43:08.129Z,99.90
2019-03-29T02:45:37.728Z,99.90
2019-03-29T02:48:07.221Z,99.90
2019-03-29T02:50:36.841Z,99.90
2019-03-29T02:53:06.777Z,99.90
2019-03-29T02:55:36.621Z,99.90
2019-03-29T02:58:06.166Z,99.90
2019-03-29T03:00:36.200Z,99.90
2019-03-29T03:03:05.706Z,99.90
2019-03-29T03:05:36.508Z,99.90
2019-03-29T03:08:06.396Z,99.90
2019-03-29T03:10:36.288Z,99.90
2019-03-29T03:13:05.945Z,99.90
2019-03-29T03:15:35.491Z,99.90
2019-03-29T03:18:05.262Z,99.90
2019-03-29T03:20:34.856Z,99.90
2019-03-29T03:23:04.411Z,99.90
2019-03-29T03:25:33.956Z,99.90
2019-03-29T03:28:03.564Z,99.90
2019-03-29T03:30:33.384Z,99.90
2019-03-29T03:33:03.260Z,99.90
2019-03-29T03:35:32.730Z,99.90
2019-03-29T03:38:02.475Z,99.90
2019-03-29T03:40:31.945Z,99.90
2019-03-29T03:43:02.837Z,99.90
2019-03-29T03:45:32.410Z,99.90
2019-03-29T03:48:01.885Z,99.90
2019-03-29T03:50:40.804Z,99.90
2019-03-29T03:53:11.079Z,99.90
2019-03-29T03:55:41.437Z,99.90
2019-03-29T03:58:12.108Z,99.90
2019-03-29T04:00:57.249Z,99.90
2019-03-29T04:03:27.264Z,99.90
2019-03-29T04:05:57.316Z,99.90
2019-03-29T04:08:27.253Z,99.90
2019-03-29T04:10:57.274Z,99.90
2019-03-29T04:13:27.472Z,99.90
2019-03-29T04:15:57.387Z,99.90
2019-03-29T04:18:26.758Z,99.90
2019-03-29T04:20:56.310Z,99.90
2019-03-29T04:23:26.260Z,99.90
2019-03-29T04:25:55.810Z,99.90
2019-03-29T04:28:25.324Z,99.90
2019-03-29T04:30:55.353Z,99.90
2019-03-29T04:33:24.887Z,99.90
2019-03-29T04:35:54.417Z,99.90
2019-03-29T04:38:23.878Z,99.90
2019-03-29T04:40:53.257Z,99.90
2019-03-29T04:43:22.727Z,99.90
2019-03-29T04:45:52.165Z,99.90
2019-03-29T04:48:21.630Z,99.90
2019-03-29T04:50:51.657Z,99.90
2019-03-29T04:53:21.398Z,99.90
2019-03-29T04:55:50.878Z,99.90
2019-03-29T04:58:20.446Z,99.90
2019-03-29T05:00:49.834Z,99.90
2019-03-29T05:03:19.302Z,99.90
2019-03-29T05:05:49.052Z,99.90
2019-03-29T05:08:18.510Z,99.90
2019-03-29T05:10:48.224Z,99.90
2019-03-29T05:13:17.749Z,99.90
2019-03-29T05:15:47.283Z,99.90
2019-03-29T05:18:16.740Z,99.90
2019-03-29T05:20:46.144Z,99.90
2019-03-29T05:23:16.235Z,99.90
2019-03-29T05:25:45.680Z,99.90
2019-03-29T05:28:15.689Z,99.90
2019-03-29T05:30:46.029Z,99.90
2019-03-29T05:33:15.595Z,99.90
2019-03-29T05:35:45.063Z,99.90
2019-03-29T05:38:14.808Z,99.90
2019-03-29T05:40:44.388Z,99.90
2019-03-29T05:43:13.997Z,99.90
2019-03-29T05:45:43.449Z,99.90
2019-03-29T05:48:12.915Z,99.90
2019-03-29T05:50:42.737Z,99.90
2019-03-29T05:53:12.200Z,99.90
2019-03-29T05:55:41.654Z,99.90
2019-03-29T05:58:11.202Z,99.90
2019-03-29T06:00:40.962Z,99.90
2019-03-29T06:03:10.627Z,99.90
2019-03-29T06:05:40.359Z,99.90
2019-03-29T06:08:09.922Z,99.90
2019-03-29T06:10:48.755Z,99.90
2019-03-29T06:13:10.627Z,99.90
2019-03-29T06:15:40.153Z,99.90
2019-03-29T06:18:09.609Z,99.90
2019-03-29T06:20:39.060Z,99.90
2019-03-29T06:23:08.610Z,99.90
2019-03-29T06:25:38.252Z,99.90
2019-03-29T06:28:08.081Z,99.90
2019-03-29T06:30:37.844Z,99.90
2019-03-29T06:33:07.661Z,99.90
2019-03-29T06:35:40.351Z,99.90
2019-03-29T06:38:10.824Z,99.90
2019-03-29T06:40:40.299Z,99.90
2019-03-29T06:43:09.780Z,99.90
2019-03-29T06:45:47.826Z,99.90
2019-03-29T06:48:10.418Z,99.90
2019-03-29T06:50:39.873Z,99.90
2019-03-29T06:53:09.617Z,99.90
2019-03-29T06:55:39.014Z,99.90
2019-03-29T06:58:08.545Z,99.90
2019-03-29T07:00:38.017Z,99.90
2019-03-29T07:03:07.487Z,99.90
2019-03-29T07:05:36.921Z,99.90
2019-03-29T07:08:06.377Z,99.90
2019-03-29T07:10:35.849Z,99.90
2019-03-29T07:13:05.407Z,99.90
2019-03-29T07:15:34.901Z,99.90
2019-03-29T07:18:04.800Z,99.90
2019-03-29T07:20:34.326Z,99.90
2019-03-29T07:23:03.754Z,99.90
2019-03-29T07:25:33.248Z,99.90
2019-03-29T07:28:02.729Z,99.90
2019-03-29T07:30:32.279Z,99.90
2019-03-29T07:33:01.654Z,99.90
2019-03-29T07:35:31.121Z,99.90
2019-03-29T07:38:00.669Z,99.90
2019-03-29T07:40:30.661Z,99.90
2019-03-29T07:43:00.367Z,99.90
2019-03-29T07:45:30.194Z,99.90
2019-03-29T07:47:59.674Z,99.90
2019-03-29T07:50:29.306Z,99.90
2019-03-29T07:52:58.793Z,99.90
2019-03-29T07:55:28.181Z,99.90
2019-03-29T07:57:57.649Z,99.90
2019-03-29T08:00:27.134Z,99.90
2019-03-29T08:02:56.665Z,99.90
2019-03-29T08:05:26.224Z,99.90
2019-03-29T08:07:55.706Z,99.90
2019-03-29T08:10:30.241Z,99.90
2019-03-29T08:12:56.718Z,99.90
2019-03-29T08:15:26.259Z,99.90
2019-03-29T08:17:55.867Z,99.90
2019-03-29T08:20:39.356Z,99.90
2019-03-29T08:22:56.759Z,99.90
2019-03-29T08:25:26.198Z,99.80
2019-03-29T08:27:55.843Z,99.70
2019-03-29T08:30:25.418Z,99.60
2019-03-29T08:32:54.836Z,99.90
2019-03-29T08:35:24.301Z,99.90
2019-03-29T08:37:53.761Z,99.30
2019-03-29T08:40:23.158Z,99.10
2019-03-29T08:42:52.622Z,99.10
2019-03-29T08:45:22.190Z,98.30
2019-03-29T08:47:51.649Z,97.80
2019-03-29T08:50:21.213Z,97.90
2019-03-29T08:52:51.018Z,96.90
2019-03-29T08:55:20.476Z,97.60
2019-03-29T08:57:49.881Z,97.20
2019-03-29T09:00:32.374Z,96.80
2019-03-29T09:03:02.203Z,96.10
2019-03-29T09:05:31.854Z,95.70
2019-03-29T09:08:01.454Z,96.20
2019-03-29T09:10:31.053Z,96.00
2019-03-29T09:13:04.049Z,95.10
2019-03-29T09:15:32.190Z,95.40
2019-03-29T09:18:01.913Z,94.40
2019-03-29T09:20:34.289Z,94.10
2019-03-29T09:23:03.086Z,94.20
2019-03-29T09:25:32.574Z,93.80
2019-03-29T09:28:02.113Z,93.20
2019-03-29T09:30:31.936Z,92.80
2019-03-29T09:33:01.445Z,92.30
2019-03-29T09:35:30.989Z,92.50
2019-03-29T09:38:00.811Z,92.50
2019-03-29T09:40:30.339Z,92.20
2019-03-29T09:43:07.265Z,91.70
2019-03-29T09:45:31.353Z,91.60
2019-03-29T09:48:00.951Z,90.70
2019-03-29T09:50:30.480Z,91.20
2019-03-29T09:53:01.338Z,91.20
2019-03-29T09:55:31.530Z,90.90
2019-03-29T09:58:01.362Z,91.70
2019-03-29T10:00:30.929Z,91.50
2019-03-29T10:03:00.406Z,91.70
2019-03-29T10:05:31.560Z,90.80
2019-03-29T10:08:01.411Z,90.00
2019-03-29T10:10:34.221Z,88.40
2019-03-29T10:13:02.372Z,86.70
2019-03-29T10:15:31.901Z,85.90
2019-03-29T10:18:01.382Z,86.80
2019-03-29T10:20:30.765Z,83.10
2019-03-29T10:23:00.898Z,83.80
2019-03-29T10:25:30.881Z,84.50
2019-03-29T10:28:00.814Z,82.70
2019-03-29T10:30:38.527Z,83.90
2019-03-29T10:33:08.105Z,84.50
2019-03-29T10:35:50.818Z,82.70
2019-03-29T10:38:08.929Z,82.50
2019-03-29T10:40:38.481Z,82.30
2019-03-29T10:43:08.289Z,80.80
2019-03-29T10:45:40.319Z,81.10
2019-03-29T10:48:09.022Z,81.80
2019-03-29T10:50:38.842Z,80.90
2019-03-29T10:53:08.377Z,79.70
2019-03-29T10:55:37.825Z,77.60
2019-03-29T10:58:09.642Z,77.10
2019-03-29T11:00:40.694Z,76.50
2019-03-29T11:03:10.422Z,74.90
2019-03-29T11:05:40.049Z,75.90
2019-03-29T11:08:11.803Z,75.10
2019-03-29T11:10:41.626Z,74.50
2019-03-29T11:13:13.899Z,73.40
2019-03-29T11:15:42.570Z,73.00
2019-03-29T11:18:12.495Z,72.10
2019-03-29T11:20:42.006Z,72.00
2019-03-29T11:23:11.557Z,72.00
2019-03-29T11:25:41.024Z,71.60
2019-03-29T11:28:10.510Z,70.70
2019-03-29T11:30:42.483Z,70.00
2019-03-29T11:33:11.334Z,68.30
2019-03-29T11:35:40.713Z,70.50
2019-03-29T11:38:10.202Z,69.70
2019-03-29T11:40:39.970Z,69.50
2019-03-29T11:43:09.789Z,67.50
2019-03-29T11:45:39.877Z,67.80
2019-03-29T11:48:09.834Z,67.40
2019-03-29T11:50:39.600Z,66.00
2019-03-29T11:53:09.175Z,66.10
2019-03-29T11:55:38.706Z,67.50
2019-03-29T11:58:08.177Z,66.60
2019-03-29T12:00:38.837Z,66.60
2019-03-29T12:03:09.437Z,66.80
2019-03-29T12:05:39.613Z,66.80
2019-03-29T12:08:09.510Z,66.20
2019-03-29T12:10:39.148Z,64.60
2019-03-29T12:13:09.829Z,63.30
2019-03-29T12:15:39.640Z,65.90
2019-03-29T12:18:09.336Z,64.90
2019-03-29T12:20:39.070Z,63.80
2019-03-29T12:23:08.632Z,64.30
2019-03-29T12:25:38.172Z,62.80
2019-03-29T12:28:07.741Z,61.30
2019-03-29T12:30:37.898Z,62.70
2019-03-29T12:33:07.344Z,61.50
2019-03-29T12:35:36.869Z,61.10
2019-03-29T12:38:06.334Z,61.20
2019-03-29T12:40:35.887Z,61.20
2019-03-29T12:43:05.442Z,59.90
2019-03-29T12:45:34.964Z,59.00
2019-03-29T12:48:04.519Z,58.00
2019-03-29T12:50:34.280Z,59.40
2019-03-29T12:53:03.809Z,57.90
2019-03-29T12:55:33.597Z,59.60
2019-03-29T12:58:03.155Z,58.30
2019-03-29T13:00:33.074Z,58.20
2019-03-29T13:03:02.538Z,55.90
2019-03-29T13:05:32.123Z,55.90
2019-03-29T13:08:01.626Z,56.00
2019-03-29T13:10:31.144Z,55.30
2019-03-29T13:13:01.034Z,54.70
2019-03-29T13:15:30.694Z,55.50
2019-03-29T13:18:00.752Z,55.10
2019-03-29T13:20:30.142Z,55.20
2019-03-29T13:22:59.683Z,55.20
2019-03-29T13:25:29.662Z,55.10
2019-03-29T13:27:59.709Z,55.00
2019-03-29T13:30:30.321Z,54.90
2019-03-29T13:32:59.862Z,55.60
2019-03-29T13:35:29.398Z,53.90
2019-03-29T13:37:59.217Z,53.30
2019-03-29T13:40:28.789Z,53.00
2019-03-29T13:42:58.346Z,52.60
2019-03-29T13:45:28.197Z,53.30
2019-03-29T13:47:57.937Z,52.30
2019-03-29T13:50:27.489Z,51.80
2019-03-29T13:52:57.601Z,52.30
2019-03-29T13:55:27.741Z,53.80
2019-03-29T13:57:57.565Z,52.40
2019-03-29T14:00:27.201Z,52.60
2019-03-29T14:02:56.653Z,52.80
2019-03-29T14:05:26.502Z,53.10
2019-03-29T14:07:55.890Z,51.50
2019-03-29T14:10:25.352Z,52.10
2019-03-29T14:12:54.882Z,52.60
2019-03-29T14:15:24.537Z,51.90
2019-03-29T14:17:54.029Z,51.20
2019-03-29T14:20:31.945Z,51.30
2019-03-29T14:23:02.616Z,50.00
2019-03-29T14:25:32.169Z,49.40
2019-03-29T14:28:01.634Z,48.00
2019-03-29T14:30:31.101Z,50.70
2019-03-29T14:33:00.854Z,48.90
2019-03-29T14:35:30.396Z,50.00
2019-03-29T14:37:59.769Z,48.60
2019-03-29T14:40:29.238Z,49.90
2019-03-29T14:42:58.704Z,49.70
2019-03-29T14:45:28.266Z,48.50
2019-03-29T14:47:58.276Z,49.40
2019-03-29T14:50:27.752Z,49.40
2019-03-29T14:52:57.259Z,49.20
2019-03-29T14:55:27.189Z,49.10
2019-03-29T14:57:56.673Z,49.40
2019-03-29T15:00:42.522Z,48.50
2019-03-29T15:03:12.969Z,48.40
2019-03-29T15:05:42.605Z,49.60
2019-03-29T15:08:12.160Z,49.50
2019-03-29T15:10:41.692Z,49.40
2019-03-29T15:13:11.634Z,49.70
2019-03-29T15:15:41.012Z,48.30
2019-03-29T15:18:10.558Z,48.80
2019-03-29T15:20:52.720Z,49.10
2019-03-29T15:23:11.540Z,49.20
2019-03-29T15:25:41.109Z,50.00
2019-03-29T15:28:10.567Z,49.10
2019-03-29T15:30:40.002Z,49.70
2019-03-29T15:33:09.941Z,49.80
2019-03-29T15:35:39.932Z,50.40
2019-03-29T15:38:09.478Z,50.60
2019-03-29T15:40:39.017Z,50.80
2019-03-29T15:43:09.052Z,52.10
2019-03-29T15:45:38.581Z,51.30
2019-03-29T15:48:08.133Z,50.90
2019-03-29T15:50:37.593Z,51.70
2019-03-29T15:53:07.057Z,52.40
2019-03-29T15:55:36.598Z,53.50
2019-03-29T15:58:06.190Z,53.30
2019-03-29T16:00:35.734Z,50.90
2019-03-29T16:03:05.606Z,52.30
2019-03-29T16:05:35.070Z,52.80
2019-03-29T16:08:04.634Z,53.10
2019-03-29T16:10:34.245Z,52.30
2019-03-29T16:13:04.044Z,52.80
2019-03-29T16:15:37.976Z,53.30
2019-03-29T16:18:04.641Z,53.50
2019-03-29T16:20:34.089Z,53.80
2019-03-29T16:23:03.566Z,53.80
2019-03-29T16:25:33.109Z,52.70
2019-03-29T16:28:02.664Z,54.00
2019-03-29T16:30:32.247Z,53.40
2019-03-29T16:33:01.670Z,52.90
2019-03-29T16:35:31.157Z,53.00
2019-03-29T16:38:00.933Z,54.20
2019-03-29T16:40:31.173Z,53.50
2019-03-29T16:43:01.048Z,53.60
2019-03-29T16:45:30.433Z,54.70
2019-03-29T16:48:00.081Z,54.30
2019-03-29T16:50:29.609Z,55.30
2019-03-29T16:52:59.077Z,55.10
2019-03-29T16:55:28.463Z,54.30
2019-03-29T16:57:58.198Z,54.40
2019-03-29T17:00:27.995Z,54.60
2019-03-29T17:02:57.466Z,54.40
2019-03-29T17:05:26.950Z,55.60
2019-03-29T17:07:56.346Z,55.40
2019-03-29T17:10:25.835Z,55.50
2019-03-29T17:12:55.365Z,56.30
2019-03-29T17:15:25.930Z,55.70
2019-03-29T17:17:55.336Z,57.10
2019-03-29T17:20:25.132Z,56.60
2019-03-29T17:22:55.081Z,57.20
2019-03-29T17:25:24.539Z,58.40
2019-03-29T17:27:54.285Z,58.60
2019-03-29T17:30:37.090Z,59.10
2019-03-29T17:33:06.481Z,58.70
2019-03-29T17:35:36.257Z,58.60
2019-03-29T17:38:05.968Z,59.60
2019-03-29T17:40:35.632Z,59.10
2019-03-29T17:43:05.189Z,59.40
2019-03-29T17:45:34.725Z,59.80
2019-03-29T17:48:04.189Z,59.80
2019-03-29T17:50:33.660Z,60.70
2019-03-29T17:53:03.223Z,60.70
2019-03-29T17:55:32.769Z,59.80
2019-03-29T17:58:02.389Z,60.50
2019-03-29T18:00:32.004Z,61.20
2019-03-29T18:03:01.402Z,61.90
2019-03-29T18:05:30.864Z,61.70
2019-03-29T18:08:00.253Z,62.30
2019-03-29T18:10:29.717Z,62.50
2019-03-29T18:12:59.195Z,62.40
2019-03-29T18:15:28.767Z,62.80
2019-03-29T18:17:58.305Z,62.60
2019-03-29T18:20:28.415Z,63.60
2019-03-29T18:22:57.945Z,64.00
2019-03-29T18:25:27.797Z,63.90
2019-03-29T18:27:57.365Z,64.40
2019-03-29T18:30:41.421Z,63.90
2019-03-29T18:33:11.385Z,64.60
2019-03-29T18:35:40.933Z,65.00
2019-03-29T18:38:10.567Z,65.10
2019-03-29T18:40:40.135Z,65.50
2019-03-29T18:43:09.961Z,65.80
2019-03-29T18:45:41.630Z,65.80
2019-03-29T18:48:11.155Z,65.60
2019-03-29T18:50:40.641Z,66.00
2019-03-29T18:53:10.478Z,66.20
2019-03-29T18:55:40.021Z,66.70
2019-03-29T18:58:09.838Z,66.90
2019-03-29T19:00:40.042Z,66.50
2019-03-29T19:03:11.875Z,67.20
2019-03-29T19:05:40.700Z,67.00
2019-03-29T19:08:10.546Z,67.40
2019-03-29T19:10:40.385Z,67.50
2019-03-29T19:13:09.846Z,68.30
2019-03-29T19:15:39.346Z,68.40
2019-03-29T19:18:08.918Z,68.00
2019-03-29T19:20:38.414Z,68.60
2019-03-29T19:23:08.229Z,68.70
2019-03-29T19:25:38.049Z,68.80
2019-03-29T19:28:07.750Z,68.70
2019-03-29T19:30:37.293Z,69.20
2019-03-29T19:33:06.825Z,69.30
2019-03-29T19:35:36.370Z,69.50
2019-03-29T19:38:05.902Z,69.50
2019-03-29T19:40:35.665Z,69.80
2019-03-29T19:43:05.195Z,70.10
2019-03-29T19:45:35.281Z,70.10
2019-03-29T19:48:04.834Z,70.20
2019-03-29T19:50:34.430Z,70.30
2019-03-29T19:53:04.006Z,70.70
2019-03-29T19:55:33.605Z,71.70
2019-03-29T19:58:03.256Z,71.70
2019-03-29T20:00:43.530Z,71.90
2019-03-29T20:03:13.208Z,72.30
2019-03-29T20:05:42.682Z,71.90
2019-03-29T20:08:12.154Z,71.90
2019-03-29T20:10:41.797Z,72.50
2019-03-29T20:13:11.336Z,72.80
2019-03-29T20:15:40.802Z,72.70
2019-03-29T20:18:10.360Z,72.60
2019-03-29T20:20:39.950Z,72.90
2019-03-29T20:23:09.424Z,72.90
2019-03-29T20:25:38.968Z,73.50
2019-03-29T20:28:08.497Z,73.60
2019-03-29T20:30:38.033Z,73.80
2019-03-29T20:33:07.573Z,74.60
2019-03-29T20:35:37.422Z,73.90
2019-03-29T20:38:06.982Z,74.20
2019-03-29T20:40:36.796Z,73.90
2019-03-29T20:43:06.254Z,74.00
2019-03-29T20:45:35.802Z,74.10
2019-03-29T20:48:05.354Z,74.60
2019-03-29T20:50:35.185Z,75.00
2019-03-29T20:53:04.747Z,75.10
2019-03-29T20:55:34.306Z,75.50
2019-03-29T20:58:03.868Z,75.40
2019-03-29T21:00:33.337Z,75.30
2019-03-29T21:03:02.780Z,75.40
2019-03-29T21:05:32.337Z,75.80
2019-03-29T21:08:01.814Z,76.30
2019-03-29T21:10:31.201Z,76.20
2019-03-29T21:13:01.448Z,76.40
2019-03-29T21:15:31.670Z,76.50
2019-03-29T21:18:01.209Z,76.50
2019-03-29T21:20:30.698Z,76.70
2019-03-29T21:23:00.159Z,76.90
2019-03-29T21:25:29.578Z,77.40
2019-03-29T21:27:59.073Z,77.80
2019-03-29T21:30:28.562Z,77.90
2019-03-29T21:32:57.932Z,77.70
2019-03-29T21:35:27.418Z,78.00
2019-03-29T21:37:56.951Z,78.00
2019-03-29T21:40:26.406Z,78.30
2019-03-29T21:42:57.277Z,78.80
2019-03-29T21:45:29.066Z,78.90
2019-03-29T21:48:10.013Z,78.90
2019-03-29T21:50:30.116Z,78.70
2019-03-29T21:52:59.857Z,78.90
2019-03-29T21:55:29.804Z,78.60
2019-03-29T21:57:59.204Z,79.00
2019-03-29T22:00:28.699Z,78.80
2019-03-29T22:02:58.271Z,79.50
2019-03-29T22:05:28.125Z,80.00
2019-03-29T22:07:57.669Z,80.20
2019-03-29T22:10:27.317Z,79.60
2019-03-29T22:12:56.726Z,79.30
2019-03-29T22:15:26.177Z,79.40
2019-03-29T22:17:55.641Z,79.80
2019-03-29T22:20:25.386Z,80.20
2019-03-29T22:22:54.863Z,80.00
2019-03-29T22:25:24.321Z,80.20
2019-03-29T22:27:53.793Z,80.10
2019-03-29T22:30:23.720Z,81.00
2019-03-29T22:32:53.105Z,81.50
2019-03-29T22:35:22.575Z,82.50
2019-03-29T22:37:51.994Z,82.00
2019-03-29T22:40:21.547Z,82.10
2019-03-29T22:42:51.176Z,82.20
2019-03-29T22:45:20.629Z,82.60
2019-03-29T22:47:50.261Z,82.30
2019-03-29T22:50:19.790Z,82.30
2019-03-29T22:52:49.261Z,82.60
2019-03-29T22:55:18.633Z,82.50
2019-03-29T22:57:48.100Z,82.70
2019-03-29T23:00:27.994Z,82.50
2019-03-29T23:02:57.559Z,82.70
2019-03-29T23:05:27.102Z,82.80
2019-03-29T23:07:56.686Z,83.00
2019-03-29T23:10:26.232Z,83.20
2019-03-29T23:12:55.777Z,83.70
2019-03-29T23:15:25.988Z,84.10
2019-03-29T23:17:55.440Z,83.40
2019-03-29T23:20:25.521Z,83.30
2019-03-29T23:22:55.224Z,83.30
2019-03-29T23:25:24.752Z,83.60
2019-03-29T23:27:54.340Z,83.80
2019-03-29T23:30:24.181Z,84.20
2019-03-29T23:32:53.651Z,83.90
2019-03-29T23:35:23.034Z,83.80
2019-03-29T23:37:52.515Z,83.40
2019-03-29T23:40:21.981Z,84.00
2019-03-29T23:42:51.450Z,84.00
2019-03-29T23:45:21.264Z,84.30
2019-03-29T23:47:50.891Z,84.10
2019-03-29T23:50:20.678Z,83.80
2019-03-29T23:52:50.061Z,84.00
2019-03-29T23:55:19.598Z,84.20
2019-03-29T23:57:49.089Z,84.60
